Station Historical Data
Daily Summary for June 1, 2017 Units:  English    Metric   Both
« Previous Day
Next Day »
Daily Weekly Monthly Yearly Custom
  High: Low: Average:
Temperature: 82.7 °F 65.9 °F 73.1 °F
Dew Point: 68.2 °F 59.3 °F 64.1 °F
Humidity: 93% 48% 75%
Wind Speed: 0.0mph 0.0mph 0mph
Wind Gust: 3.0mph - -
Wind- -
Pressure: 30.13 in 30.03 in -
Precipitation: 0.00 in    
Historical Graphs
 
 
Tabular Data for June 1, 2017
Time Temperature Dew Point Pressure Wind Wind Speed Wind Gust Humidity Rainfall Rate (Hourly) solar Conditions
00:00 69.2 °F 65.2 °F 30.10 in Calm     87% 0.00 in WeatherDisplay:10.37 W/m2 SCT
00:10 69.2 °F 65.2 °F 30.10 in Calm     87% 0.00 in WeatherDisplay:10.37 W/m2 SCT
00:20 69.1 °F 65.4 °F 30.09 in Calm     88% 0.00 in WeatherDisplay:10.37 W/m2 SCT
00:30 69.1 °F 65.4 °F 30.09 in Calm     88% 0.00 in WeatherDisplay:10.37 W/m2 SCT
00:40 69.0 °F 65.3 °F 30.09 in Calm     88% 0.00 in WeatherDisplay:10.37 W/m2 SCT
00:50 68.8 °F 65.1 °F 30.09 in Calm     88% 0.00 in WeatherDisplay:10.37 W/m2 SCT
01:00 68.6 °F 65.2 °F 30.09 in Calm     89% 0.00 in WeatherDisplay:10.37 W/m2 SCT
01:10 68.5 °F 65.1 °F 30.09 in Calm     89% 0.00 in WeatherDisplay:10.37 W/m2 SCT
01:20 68.4 °F 65.4 °F 30.09 in Calm     90% 0.00 in WeatherDisplay:10.37 W/m2 SCT
01:30 68.2 °F 65.2 °F 30.09 in Calm     90% 0.00 in WeatherDisplay:10.37 W/m2 SCT
01:40 68.1 °F 65.1 °F 30.09 in Calm     90% 0.00 in WeatherDisplay:10.37 W/m2 SCT
01:50 67.9 °F 64.9 °F 30.09 in Calm     90% 0.00 in WeatherDisplay:10.37 W/m2 SCT
02:00 67.8 °F 64.8 °F 30.09 in Calm     90% 0.00 in WeatherDisplay:10.37 W/m2 SCT
02:10 67.7 °F 65.0 °F 30.08 in Calm     91% 0.00 in WeatherDisplay:10.37 W/m2 SCT
02:20 67.6 °F 64.9 °F 30.08 in Calm     91% 0.00 in WeatherDisplay:10.37 W/m2 SCT
02:30 67.3 °F 64.6 °F 30.08 in Calm     91% 0.00 in WeatherDisplay:10.37 W/m2 SCT
02:40 67.1 °F 64.4 °F 30.08 in Calm     91% 0.00 in WeatherDisplay:10.37 W/m2 SCT
02:50 66.9 °F 64.2 °F 30.08 in Calm     91% 0.00 in WeatherDisplay:10.37 W/m2 SCT
03:00 65.9 °F 62.9 °F 30.08 in Calm     90% 0.00 in WeatherDisplay:10.37 W/m2 SCT
03:10 65.9 °F 62.9 °F 30.08 in Calm     90% 0.00 in WeatherDisplay:10.37 W/m2 SCT
03:20 65.9 °F 62.9 °F 30.07 in Calm     90% 0.00 in WeatherDisplay:10.37 W/m2 SCT
03:30 65.9 °F 62.9 °F 30.08 in Calm     90% 0.00 in WeatherDisplay:10.37 W/m2 SCT
03:40 65.9 °F 62.9 °F 30.08 in Calm     90% 0.00 in WeatherDisplay:10.37 W/m2 SCT
03:50 65.9 °F 62.9 °F 30.08 in Calm     90% 0.00 in WeatherDisplay:10.37 W/m2 SCT
04:00 65.9 °F 62.9 °F 30.07 in Calm     90% 0.00 in WeatherDisplay:10.37 W/m2 SCT
04:10 65.9 °F 62.9 °F 30.07 in Calm     90% 0.00 in WeatherDisplay:10.37 W/m2 SCT
04:20 65.9 °F 62.9 °F 30.07 in Calm     90% 0.00 in WeatherDisplay:10.37 W/m2 SCT
04:30 65.9 °F 62.9 °F 30.08 in Calm     90% 0.00 in WeatherDisplay:10.37 W/m2 SCT
04:40 65.9 °F 62.9 °F 30.08 in Calm     90% 0.00 in WeatherDisplay:10.37 W/m2 SCT
04:50 65.9 °F 62.9 °F 30.08 in Calm     90% 0.00 in WeatherDisplay:10.37 W/m2 SCT
05:00 65.9 °F 62.9 °F 30.08 in Calm     90% 0.00 in WeatherDisplay:10.37 W/m2 SCT
05:10 65.9 °F 62.9 °F 30.08 in Calm     90% 0.00 in WeatherDisplay:10.37 W/m2 SCT
05:20 65.9 °F 62.9 °F 30.08 in Calm     90% 0.00 in WeatherDisplay:10.37 W/m2 SCT
05:30 65.9 °F 62.9 °F 30.08 in Calm     90% 0.00 in WeatherDisplay:10.37 W/m2 SCT
05:40 65.9 °F 62.9 °F 30.08 in Calm     90% 0.00 in WeatherDisplay:10.37 W/m2 SCT
05:50 65.9 °F 62.9 °F 30.09 in Calm     90% 0.00 in WeatherDisplay:10.37 W/m2 SCT
06:00 65.9 °F 62.9 °F 30.10 in Calm     90% 0.00 in WeatherDisplay:10.37 W/m2 SCT
06:10 65.9 °F 62.9 °F 30.10 in Calm     90% 0.00 in WeatherDisplay:10.37 W/m2 SCT
06:20 65.9 °F 62.9 °F 30.10 in Calm     90% 0.00 in WeatherDisplay:10.37 W/m2 SCT
06:30 65.9 °F 62.9 °F 30.10 in Calm     90% 0.00 in WeatherDisplay:10.37 W/m2 SCT
06:40 65.9 °F 62.9 °F 30.11 in Calm     90% 0.00 in WeatherDisplay:10.37 W/m2 SCT
06:50 65.9 °F 62.9 °F 30.11 in Calm     90% 0.00 in WeatherDisplay:10.37 W/m2 SCT
07:00 65.9 °F 62.9 °F 30.11 in Calm     90% 0.00 in WeatherDisplay:10.37 W/m2 SCT
07:10 65.9 °F 62.9 °F 30.11 in Calm     90% 0.00 in WeatherDisplay:10.37 W/m2 SCT
07:20 65.9 °F 62.9 °F 30.12 in Calm     90% 0.00 in WeatherDisplay:10.37 W/m2 SCT
07:30 65.9 °F 62.9 °F 30.12 in Calm     90% 0.00 in WeatherDisplay:10.37 W/m2 SCT
07:40 66.3 °F 64.2 °F 30.12 in Calm     93% 0.00 in WeatherDisplay:10.37 W/m2 SCT
07:50 66.9 °F 64.8 °F 30.11 in Calm   1.0 mph 93% 0.00 in WeatherDisplay:10.37 W/m2 SCT
08:00 67.5 °F 65.1 °F 30.11 in Calm   1.0 mph 92% 0.00 in WeatherDisplay:10.37 W/m2 SCT
08:10 68.0 °F 65.6 °F 30.12 in Calm   1.0 mph 92% 0.00 in WeatherDisplay:10.37 W/m2 SCT
08:20 68.4 °F 65.7 °F 30.12 in Calm   1.0 mph 91% 0.00 in WeatherDisplay:10.37 W/m2 SCT
08:30 68.9 °F 65.9 °F 30.12 in Calm     90% 0.00 in WeatherDisplay:10.37 W/m2 SCT
08:40 69.4 °F 66.3 °F 30.12 in Calm   1.0 mph 90% 0.00 in WeatherDisplay:10.37 W/m2 SCT
08:50 69.9 °F 66.5 °F 30.12 in Calm   1.0 mph 89% 0.00 in WeatherDisplay:10.37 W/m2 SCT
09:00 70.6 °F 67.2 °F 30.12 in Calm   1.0 mph 89% 0.00 in WeatherDisplay:10.37 W/m2 SCT
09:10 71.2 °F 67.2 °F 30.12 in Calm     87% 0.00 in WeatherDisplay:10.37 W/m2 SCT
09:20 71.8 °F 66.7 °F 30.12 in Calm   1.0 mph 84% 0.00 in WeatherDisplay:10.37 W/m2 SCT
09:30 72.2 °F 66.4 °F 30.13 in Calm   1.0 mph 82% 0.00 in WeatherDisplay:10.37 W/m2 SCT
09:40 72.8 °F 67.0 °F 30.13 in Calm   1.0 mph 82% 0.00 in WeatherDisplay:10.37 W/m2 SCT
09:50 73.5 °F 68.0 °F 30.12 in Calm   1.0 mph 83% 0.00 in WeatherDisplay:10.37 W/m2 SCT
10:00 74.0 °F 67.4 °F 30.12 in Calm     80% 0.00 in WeatherDisplay:10.37 W/m2 SCT
10:10 74.9 °F 66.8 °F 30.12 in Calm     76% 0.00 in WeatherDisplay:10.37 W/m2 SCT
10:20 75.7 °F 67.2 °F 30.12 in Calm     75% 0.00 in WeatherDisplay:10.37 W/m2 SCT
10:30 76.7 °F 67.4 °F 30.12 in Calm     73% 0.00 in WeatherDisplay:10.37 W/m2 SCT
10:40 77.9 °F 68.2 °F 30.12 in Calm     72% 0.00 in WeatherDisplay:10.37 W/m2 SCT
11:00 78.6 °F 66.2 °F 30.12 in Calm     66% 0.00 in WeatherDisplay:10.37 W/m2 SCT
11:10 78.9 °F 65.7 °F 30.12 in Calm   1.0 mph 64% 0.00 in WeatherDisplay:10.37 W/m2 SCT
11:20 79.3 °F 63.7 °F 30.12 in Calm     59% 0.00 in WeatherDisplay:10.37 W/m2 SCT
11:30 79.4 °F 64.8 °F 30.12 in Calm   1.0 mph 61% 0.00 in WeatherDisplay:10.37 W/m2 SCT
11:40 79.5 °F 64.4 °F 30.12 in Calm   2.0 mph 60% 0.00 in WeatherDisplay:10.37 W/m2 SCT
11:50 79.5 °F 63.9 °F 30.12 in Calm   1.0 mph 59% 0.00 in WeatherDisplay:10.37 W/m2 SCT
12:00 79.4 °F 62.8 °F 30.12 in Calm   1.0 mph 57% 0.00 in WeatherDisplay:10.37 W/m2 SCT
12:10 79.4 °F 63.8 °F 30.12 in Calm   2.0 mph 59% 0.00 in WeatherDisplay:10.37 W/m2 SCT
12:20 79.7 °F 65.1 °F 30.12 in Calm   1.0 mph 61% 0.00 in WeatherDisplay:10.37 W/m2 SCT
12:30 80.1 °F 66.4 °F 30.12 in Calm   1.0 mph 63% 0.00 in WeatherDisplay:10.37 W/m2 SCT
12:40 80.2 °F 65.5 °F 30.12 in Calm   1.0 mph 61% 0.00 in WeatherDisplay:10.37 W/m2 SCT
12:50 80.7 °F 63.0 °F 30.11 in Calm   2.0 mph 55% 0.00 in WeatherDisplay:10.37 W/m2 SCT
13:10 82.3 °F 62.9 °F 30.11 in Calm   2.0 mph 52% 0.00 in WeatherDisplay:10.37 W/m2 SCT
13:20 82.7 °F 62.2 °F 30.11 in Calm   1.0 mph 50% 0.00 in WeatherDisplay:10.37 W/m2 SCT
13:30 82.0 °F 64.3 °F 30.11 in Calm   2.0 mph 55% 0.00 in WeatherDisplay:10.37 W/m2 SCT
13:40 81.9 °F 63.6 °F 30.10 in Calm   1.0 mph 54% 0.00 in WeatherDisplay:10.37 W/m2 SCT
13:50 82.0 °F 62.6 °F 30.10 in Calm   1.0 mph 52% 0.00 in WeatherDisplay:10.37 W/m2 SCT
14:00 81.7 °F 61.2 °F 30.09 in Calm   1.0 mph 50% 0.00 in WeatherDisplay:10.37 W/m2 SCT
14:10 81.2 °F 63.0 °F 30.09 in Calm   1.0 mph 54% 0.00 in WeatherDisplay:10.37 W/m2 SCT
14:20 81.2 °F 60.2 °F 30.09 in Calm   1.0 mph 49% 0.00 in WeatherDisplay:10.37 W/m2 SCT
14:30 81.7 °F 62.9 °F 30.08 in Calm   3.0 mph 53% 0.00 in WeatherDisplay:10.37 W/m2 SCT
14:40 82.0 °F 62.1 °F 30.08 in Calm   2.0 mph 51% 0.00 in WeatherDisplay:10.37 W/m2 SCT
14:50 81.9 °F 62.6 °F 30.08 in Calm   2.0 mph 52% 0.00 in WeatherDisplay:10.37 W/m2 SCT
15:00 82.5 °F 62.0 °F 30.08 in Calm   1.0 mph 50% 0.00 in WeatherDisplay:10.37 W/m2 SCT
15:10 82.1 °F 61.0 °F 30.07 in Calm   1.0 mph 49% 0.00 in WeatherDisplay:10.37 W/m2 SCT
15:20 81.5 °F 61.1 °F 30.07 in Calm   1.0 mph 50% 0.00 in WeatherDisplay:10.37 W/m2 SCT
15:30 81.9 °F 60.9 °F 30.07 in Calm   2.0 mph 49% 0.00 in WeatherDisplay:10.37 W/m2 SCT
15:40 81.2 °F 59.6 °F 30.06 in Calm   2.0 mph 48% 0.00 in WeatherDisplay:10.37 W/m2 SCT
15:50 80.8 °F 61.5 °F 30.06 in Calm   1.0 mph 52% 0.00 in WeatherDisplay:10.37 W/m2 SCT
16:00 80.8 °F 60.9 °F 30.06 in Calm   1.0 mph 51% 0.00 in WeatherDisplay:10.37 W/m2 SCT
16:10 80.4 °F 62.8 °F 30.06 in Calm   1.0 mph 55% 0.00 in WeatherDisplay:10.37 W/m2 SCT
16:20 80.5 °F 60.7 °F 30.06 in Calm   1.0 mph 51% 0.00 in WeatherDisplay:10.37 W/m2 SCT
16:30 80.5 °F 61.3 °F 30.05 in Calm   1.0 mph 52% 0.00 in WeatherDisplay:10.37 W/m2 SCT
16:40 80.2 °F 59.3 °F 30.05 in Calm   1.0 mph 49% 0.00 in WeatherDisplay:10.37 W/m2 SCT
16:50 79.6 °F 61.0 °F 30.05 in Calm   1.0 mph 53% 0.00 in WeatherDisplay:10.37 W/m2 SCT
17:00 79.0 °F 60.4 °F 30.05 in Calm   1.0 mph 53% 0.00 in WeatherDisplay:10.37 W/m2 SCT
17:10 78.5 °F 60.9 °F 30.05 in Calm   1.0 mph 55% 0.00 in WeatherDisplay:10.37 W/m2 SCT
17:20 78.5 °F 63.0 °F 30.05 in Calm     59% 0.00 in WeatherDisplay:10.37 W/m2 SCT
17:30 78.9 °F 64.3 °F 30.05 in Calm     61% 0.00 in WeatherDisplay:10.37 W/m2 SCT
17:40 79.1 °F 62.6 °F 30.05 in Calm     57% 0.00 in WeatherDisplay:10.37 W/m2 SCT
17:50 79.4 °F 64.3 °F 30.04 in Calm     60% 0.00 in WeatherDisplay:10.37 W/m2 SCT
18:00 79.0 °F 64.4 °F 30.04 in Calm     61% 0.00 in WeatherDisplay:10.37 W/m2 SCT
18:10 78.2 °F 64.1 °F 30.04 in Calm     62% 0.00 in WeatherDisplay:10.37 W/m2 SCT
18:20 77.9 °F 63.8 °F 30.04 in Calm     62% 0.00 in WeatherDisplay:10.37 W/m2 SCT
18:30 77.5 °F 63.5 °F 30.04 in Calm     62% 0.00 in WeatherDisplay:10.37 W/m2 SCT
18:40 77.2 °F 64.0 °F 30.03 in Calm     64% 0.00 in WeatherDisplay:10.37 W/m2 SCT
18:50 76.7 °F 62.7 °F 30.03 in Calm     62% 0.00 in WeatherDisplay:10.37 W/m2 SCT
19:00 76.5 °F 63.4 °F 30.03 in Calm     64% 0.00 in WeatherDisplay:10.37 W/m2 SCT
19:10 76.4 °F 63.3 °F 30.03 in Calm     64% 0.00 in WeatherDisplay:10.37 W/m2 SCT
19:20 76.4 °F 63.8 °F 30.03 in Calm     65% 0.00 in WeatherDisplay:10.37 W/m2 SCT
19:30 76.3 °F 64.5 °F 30.04 in Calm     67% 0.00 in WeatherDisplay:10.37 W/m2 SCT
19:40 76.1 °F 64.3 °F 30.04 in Calm     67% 0.00 in WeatherDisplay:10.37 W/m2 SCT
19:50 75.7 °F 64.4 °F 30.04 in Calm     68% 0.00 in WeatherDisplay:10.37 W/m2 SCT
20:00 75.4 °F 64.5 °F 30.04 in Calm     69% 0.00 in WeatherDisplay:10.37 W/m2 SCT
20:10 75.0 °F 63.7 °F 30.04 in Calm     68% 0.00 in WeatherDisplay:10.37 W/m2 SCT
20:20 74.3 °F 64.7 °F 30.05 in Calm     72% 0.00 in WeatherDisplay:10.37 W/m2 SCT
20:30 74.0 °F 65.6 °F 30.05 in Calm     75% 0.00 in WeatherDisplay:10.37 W/m2 SCT
20:40 73.9 °F 66.2 °F 30.05 in Calm     77% 0.00 in WeatherDisplay:10.37 W/m2 SCT
20:50 73.7 °F 66.4 °F 30.05 in Calm     78% 0.00 in WeatherDisplay:10.37 W/m2 SCT
21:00 73.4 °F 66.5 °F 30.05 in Calm     79% 0.00 in WeatherDisplay:10.37 W/m2 SCT
21:10 73.1 °F 66.6 °F 30.06 in Calm     80% 0.00 in WeatherDisplay:10.37 W/m2 SCT
21:20 72.7 °F 66.2 °F 30.05 in Calm     80% 0.00 in WeatherDisplay:10.37 W/m2 SCT
21:30 72.4 °F 66.2 °F 30.06 in Calm     81% 0.00 in WeatherDisplay:10.37 W/m2 SCT
21:40 72.1 °F 66.3 °F 30.06 in Calm     82% 0.00 in WeatherDisplay:10.37 W/m2 SCT
21:50 71.9 °F 66.1 °F 30.06 in Calm     82% 0.00 in WeatherDisplay:10.37 W/m2 SCT
22:00 71.6 °F 65.8 °F 30.06 in Calm     82% 0.00 in WeatherDisplay:10.37 W/m2 SCT
22:10 71.4 °F 66.0 °F 30.06 in Calm     83% 0.00 in WeatherDisplay:10.37 W/m2 SCT
22:20 71.2 °F 65.8 °F 30.06 in Calm     83% 0.00 in WeatherDisplay:10.37 W/m2 SCT
22:30 71.0 °F 65.9 °F 30.06 in Calm     84% 0.00 in WeatherDisplay:10.37 W/m2 SCT
22:40 70.8 °F 65.7 °F 30.07 in Calm     84% 0.00 in WeatherDisplay:10.37 W/m2 SCT
22:50 70.7 °F 65.3 °F 30.07 in Calm     83% 0.00 in WeatherDisplay:10.37 W/m2 SCT
23:00 70.5 °F 65.4 °F 30.07 in Calm     84% 0.00 in WeatherDisplay:10.37 W/m2 SCT
23:10 70.4 °F 65.3 °F 30.08 in Calm     84% 0.00 in WeatherDisplay:10.37 W/m2 SCT
23:20 70.2 °F 65.5 °F 30.08 in Calm     85% 0.00 in WeatherDisplay:10.37 W/m2 SCT
23:30 70.0 °F 65.3 °F 30.08 in Calm     85% 0.00 in WeatherDisplay:10.37 W/m2 SCT
23:40 69.9 °F 65.2 °F 30.07 in Calm     85% 0.00 in WeatherDisplay:10.37 W/m2 SCT
23:50 69.8 °F 65.4 °F 30.08 in Calm     86% 0.00 in WeatherDisplay:10.37 W/m2 SCT
Piedmont Bend
Compliments of Weather Underground - 4 mb